Time;durP1;ratioP1;P1;durP2;ratioP2;P2;SDS_P1;SDS_P2;PMS_P1;PMS_P2;Temp;Humidity;BMP_temperature;BMP_pressure;BME280_temperature;BME280_humidity;BME280_pressure;Samples;Min_cycle;Max_cycle;Signal;HPM_P1;HPM_P2
2023/11/23 00:10:20;;;;;;;1.65;1.48;;;10.50;55.90;;;;;;6158072;29;20043;-94
2023/11/23 00:14:40;;;;;;;;;;;;;;;;;;;;;
2023/11/23 00:21:53;;;;;;;1.73;1.58;;;10.40;56.00;;;;;;6091427;29;20043;-91
2023/11/23 00:29:11;;;;;;;3.70;1.60;;;10.30;56.30;;;;;;6097133;29;20061;-94
2023/11/23 00:32:40;;;;;;;2.35;1.85;;;10.20;56.30;;;;;;6080233;29;20152;-91
2023/11/23 00:36:21;;;;;;;3.60;1.98;;;10.30;56.20;;;;;;6081722;29;20105;-91
2023/11/23 00:40:08;;;;;;;2.30;1.80;;;10.30;56.40;;;;;;6084701;29;20132;-92
2023/11/23 00:48:04;;;;;;;2.92;1.88;;;10.40;56.10;;;;;;6035914;29;20050;-94
2023/11/23 00:51:57;;;;;;;3.38;1.67;;;10.40;56.00;;;;;;5977694;29;20076;-95
2023/11/23 01:00:36;;;;;;;;;;;;;;;;;;;;;
2023/11/23 01:04:04;;;;;;;;;;;;;;;;;;;;;
2023/11/23 01:07:44;;;;;;;2.53;1.50;;;10.60;55.70;;;;;;5951424;30;20122;-92
2023/11/23 01:11:00;;;;;;;2.40;1.27;;;10.50;55.60;;;;;;5935391;30;20469;-92
2023/11/23 01:14:08;;;;;;;;;;;10.60;55.50;;;;;;5901485;30;20059;-91
2023/11/23 01:18:23;;;;;;;2.35;1.65;;;10.50;55.50;;;;;;5940956;30;19984;-93
2023/11/23 01:22:57;;;;;;;;;;;;;;;;;;;;;
2023/11/23 01:26:39;;;;;;;4.30;2.13;;;10.50;55.50;;;;;;5988818;29;20039;-94
2023/11/23 01:35:23;;;;;;;;;;;;;;;;;;;;;
2023/11/23 01:38:35;;;;;;;2.42;1.73;;;10.30;55.50;;;;;;5831301;30;20042;-92
2023/11/23 01:42:14;;;;;;;2.35;1.15;;;10.20;55.50;;;;;;5817940;30;20168;-92
2023/11/23 01:46:09;;;;;;;2.90;1.52;;;10.30;55.60;;;;;;5820738;30;20070;-91
2023/11/23 02:03:48;;;;;;;3.35;1.88;;;10.30;55.50;;;;;;5912986;30;20114;-95
2023/11/23 02:27:58;;;;;;;2.95;1.70;;;9.80;56.20;;;;;;5887814;30;20056;-93
2023/11/23 02:31:11;;;;;;;2.70;1.52;;;9.70;56.10;;;;;;5909421;30;20109;-93
2023/11/23 02:35:04;;;;;;;2.90;1.98;;;9.80;56.10;;;;;;5931805;29;20087;-92
2023/11/23 02:38:26;;;;;;;4.68;1.52;;;9.70;56.10;;;;;;5946294;30;20110;-91
2023/11/23 02:41:51;;;;;;;3.80;1.92;;;9.70;55.90;;;;;;5927221;30;20032;-92
2023/11/23 02:57:49;;;;;;;2.92;1.70;;;9.70;56.00;;;;;;5914098;29;20063;-91
2023/11/23 03:01:15;;;;;;;;;;;;;;;;;;;;;
2023/11/23 03:04:19;;;;;;;3.50;2.13;;;9.60;56.00;;;;;;5908331;30;20446;-91
2023/11/23 03:07:56;;;;;;;;;;;;;;;;;;;;;
2023/11/23 03:11:05;;;;;;;2.70;1.92;;;9.70;56.20;;;;;;5910163;30;20448;-91
2023/11/23 03:18:15;;;;;;;2.90;1.90;;;9.80;55.80;;;;;;5946780;30;20513;-91
2023/11/23 03:21:42;;;;;;;3.53;1.60;;;9.80;55.80;;;;;;5940507;29;20129;-92
2023/11/23 03:24:56;;;;;;;3.75;2.22;;;9.70;55.70;;;;;;6025963;29;20042;-94
2023/11/23 03:28:27;;;;;;;6.20;2.35;;;9.70;55.60;;;;;;6032959;29;20109;-94
2023/11/23 03:32:29;;;;;;;;;;;;;;;;;;;;;
2023/11/23 03:36:04;;;;;;;3.13;1.90;;;9.60;55.70;;;;;;6014230;29;20041;-91
2023/11/23 03:39:55;;;;;;;;;;;;;;;;;;;;;
2023/11/23 03:47:16;;;;;;;;;;;;;;;;;;;;;
2023/11/23 03:50:44;;;;;;;1.52;1.38;;;9.40;56.00;;;;;;6060970;29;20056;-90
2023/11/23 03:54:11;;;;;;;4.13;2.20;;;9.40;56.10;;;;;;6027394;29;20085;-90
2023/11/23 03:57:39;;;;;;;3.05;1.77;;;9.40;56.00;;;;;;6014377;29;20066;-91
2023/11/23 04:01:01;;;;;;;4.18;2.58;;;9.40;56.00;;;;;;5999480;29;20580;-91
2023/11/23 04:05:05;;;;;;;5.13;2.50;;;9.40;56.00;;;;;;5998958;29;20137;-92
2023/11/23 04:08:13;;;;;;;4.40;2.03;;;9.40;56.10;;;;;;6014930;29;20084;-91
2023/11/23 04:11:42;;;;;;;3.22;2.20;;;9.40;56.00;;;;;;5999835;29;20030;-91
2023/11/23 04:15:30;;;;;;;3.03;1.75;;;9.30;56.10;;;;;;6018592;29;20030;-91
2023/11/23 04:19:08;;;;;;;3.17;2.00;;;9.30;56.30;;;;;;5983272;29;20046;-92
2023/11/23 04:23:07;;;;;;;3.03;2.17;;;9.30;56.90;;;;;;6020325;29;20136;-96
2023/11/23 04:26:53;;;;;;;;;;;;;;;;;;;;;
2023/11/23 04:30:32;;;;;;;;;;;;;;;;;;;;;
2023/11/23 04:34:11;;;;;;;5.43;2.53;;;9.20;56.60;;;;;;6076910;29;20044;-94
2023/11/23 04:37:47;;;;;;;5.10;2.40;;;9.00;56.80;;;;;;6062795;29;20205;-90
2023/11/23 04:41:19;;;;;;;4.28;2.53;;;8.90;57.00;;;;;;6075210;29;20037;-91
2023/11/23 04:44:34;;;;;;;4.65;2.28;;;8.90;57.20;;;;;;6068167;29;20043;-91
2023/11/23 04:48:12;;;;;;;4.93;2.47;;;8.80;57.30;;;;;;6064227;29;20048;-91
2023/11/23 04:51:21;;;;;;;3.03;1.75;;;8.80;57.30;;;;;;6026312;29;20156;-92
2023/11/23 04:54:59;;;;;;;6.20;2.42;;;8.80;57.40;;;;;;6017096;29;20101;-92
2023/11/23 04:58:52;;;;;;;5.03;2.75;;;8.80;57.40;;;;;;6018429;29;20086;-92
2023/11/23 05:02:13;;;;;;;3.92;2.33;;;8.80;57.40;;;;;;6018689;29;20041;-93
2023/11/23 05:05:30;;;;;;;4.30;1.95;;;8.80;57.40;;;;;;6003624;29;20189;-92
2023/11/23 05:08:46;;;;;;;3.90;2.67;;;8.80;57.40;;;;;;6018488;29;20481;-92
2023/11/23 05:12:15;;;;;;;;;;;;;;;;;;;;;
2023/11/23 05:15:54;;;;;;;16.30;2.22;;;8.80;57.50;;;;;;6067386;29;20033;-93
2023/11/23 05:18:59;;;;;;;5.00;2.10;;;8.80;57.60;;;;;;6075040;29;20458;-89
2023/11/23 05:25:46;;;;;;;3.95;2.42;;;8.80;57.70;;;;;;6002941;29;20048;-91
2023/11/23 05:29:51;;;;;;;3.65;2.33;;;8.80;57.60;;;;;;6017643;29;20073;-90
2023/11/23 05:33:25;;;;;;;6.13;2.50;;;8.70;57.70;;;;;;6023331;29;20152;-90
2023/11/23 05:37:08;;;;;;;6.50;2.45;;;8.70;57.80;;;;;;6042309;29;20141;-89
2023/11/23 05:40:30;;;;;;;6.53;3.33;;;8.70;57.80;;;;;;6027684;29;20153;-91
2023/11/23 05:44:08;;;;;;;4.45;2.38;;;8.70;57.90;;;;;;6050621;29;20049;-94
2023/11/23 05:47:11;;;;;;;3.55;2.38;;;8.70;57.90;;;;;;6029148;29;20041;-90
2023/11/23 05:50:26;;;;;;;;;;;;;;;;;;;;;
2023/11/23 05:53:45;;;;;;;3.78;2.20;;;8.70;57.90;;;;;;5971500;29;20341;-89
2023/11/23 05:57:18;;;;;;;5.55;3.22;;;8.70;57.90;;;;;;5987103;29;20046;-94
2023/11/23 06:00:38;;;;;;;4.20;2.83;;;8.80;57.80;;;;;;6013316;29;20101;-95
2023/11/23 06:03:57;;;;;;;;;;;;;;;;;;;;;
2023/11/23 06:25:02;;;;;;;;;;;;;;;;;;;;;
2023/11/23 06:33:50;;;;;;;;;;;;;;;;;;;;;
2023/11/23 06:43:05;;;;;;;;;;;;;;;;;;;;;
2023/11/23 07:53:51;;;;;;;7.25;3.92;;;8.60;58.20;;;;;;6732436;22;25079750;-94
2023/11/23 07:57:42;;;;;;;8.57;3.25;;;8.50;58.30;;;;;;7633237;23;20009;-95
2023/11/23 08:09:58;;;;;;;;;;;;;;;;;;;;;
2023/11/23 08:13:25;;;;;;;5.32;3.55;;;8.50;58.40;;;;;;7407102;24;20384;-86
2023/11/23 08:20:46;;;;;;;8.90;3.38;;;8.50;58.60;;;;;;7181679;24;20022;-87
2023/11/23 08:41:47;;;;;;;7.05;3.50;;;8.70;58.50;;;;;;7603138;23;20026;-95
2023/11/23 09:14:22;;;;;;;9.68;4.13;;;8.70;58.30;;;;;;7748788;22;20035;-87
2023/11/23 09:22:09;;;;;;;6.18;3.58;;;8.80;58.30;;;;;;7647564;23;20014;-86
2023/11/23 09:26:23;;;;;;;;;;;;;;;;;;;;;
2023/11/23 09:30:49;;;;;;;;;;;;;;;;;;;;;
2023/11/23 09:34:59;;;;;;;9.30;4.13;;;8.90;58.10;;;;;;7297649;24;20018;-89
2023/11/23 19:01:56;;;;;;;8.98;4.63;;;9.10;57.90;;;;;;7574923;23;20026;-71
2023/11/23 19:04:57;;;;;;;8.73;4.65;;;9.10;57.80;;;;;;7603269;23;20036;-70
2023/11/23 19:07:58;;;;;;;11.52;5.25;;;9.10;57.80;;;;;;7630266;23;20723;-71
2023/11/23 19:10:58;;;;;;;15.02;4.88;;;9.10;57.80;;;;;;7567564;23;20152;-71
2023/11/23 19:17:16;;;;;;;10.35;4.68;;;9.10;57.70;;;;;;7593380;23;20021;-71
2023/11/23 19:20:17;;;;;;;17.08;7.05;;;9.10;57.70;;;;;;7592400;23;20014;-71
2023/11/23 19:23:18;;;;;;;10.55;4.72;;;9.10;57.70;;;;;;7567550;23;20088;-71
2023/11/23 19:26:20;;;;;;;13.63;6.00;;;9.00;57.70;;;;;;7568287;23;20013;-70
2023/11/23 19:29:21;;;;;;;9.55;5.25;;;9.00;57.80;;;;;;7544091;23;20104;-70
2023/11/23 19:32:25;;;;;;;10.68;5.50;;;8.90;57.90;;;;;;7594415;23;20093;-70
2023/11/23 19:35:27;;;;;;;7.47;4.63;;;8.90;58.00;;;;;;7568108;23;20065;-72
2023/11/23 19:38:28;;;;;;;14.82;7.07;;;8.80;58.20;;;;;;7543748;23;20022;-70
2023/11/23 19:41:31;;;;;;;8.48;3.80;;;8.80;58.30;;;;;;7566974;23;20101;-70
2023/11/23 19:44:34;;;;;;;12.75;5.40;;;8.80;58.20;;;;;;7567642;23;20038;-71
2023/11/23 19:47:35;;;;;;;11.18;5.25;;;8.70;58.30;;;;;;7594099;23;20001;-72
2023/11/23 19:50:36;;;;;;;12.27;5.00;;;8.60;58.40;;;;;;7567525;23;20270;-71
2023/11/23 19:53:41;;;;;;;8.10;4.45;;;8.60;58.50;;;;;;7593927;23;20002;-69
2023/11/23 19:56:43;;;;;;;10.98;4.72;;;8.60;58.60;;;;;;7566454;23;20006;-72
2023/11/23 19:59:46;;;;;;;10.95;5.20;;;8.50;58.70;;;;;;7567577;23;20077;-72
2023/11/23 20:02:48;;;;;;;10.43;5.47;;;8.60;58.80;;;;;;7566856;23;20049;-72
2023/11/23 20:05:49;;;;;;;8.05;5.20;;;8.50;58.90;;;;;;7543404;23;20025;-70
2023/11/23 20:08:51;;;;;;;11.82;5.72;;;8.50;58.90;;;;;;7593517;23;20041;-71
2023/11/23 20:11:53;;;;;;;14.15;6.38;;;8.40;58.90;;;;;;7566853;23;20020;-71
2023/11/23 20:14:54;;;;;;;10.77;5.30;;;8.50;59.00;;;;;;7592273;23;20460;-71
2023/11/23 20:17:55;;;;;;;13.07;5.43;;;8.50;58.90;;;;;;7566658;23;20037;-71
2023/11/23 20:20:56;;;;;;;12.30;5.38;;;8.50;58.90;;;;;;7538501;23;20448;-75
2023/11/23 20:23:59;;;;;;;11.15;5.57;;;8.50;59.00;;;;;;7588920;23;20020;-73
2023/11/23 20:27:00;;;;;;;17.33;5.93;;;8.40;59.00;;;;;;7563114;23;20404;-74
2023/11/23 20:30:01;;;;;;;26.40;5.22;;;8.40;59.10;;;;;;7561435;23;20017;-71
2023/11/23 20:33:08;;;;;;;9.82;5.43;;;8.40;59.20;;;;;;7561706;23;20018;-71
2023/11/23 20:36:11;;;;;;;10.35;5.40;;;8.40;59.30;;;;;;7558640;23;20113;-70
2023/11/23 20:39:14;;;;;;;10.77;6.57;;;8.40;59.30;;;;;;7562486;23;20012;-71
2023/11/23 20:42:15;;;;;;;15.23;6.13;;;8.40;59.90;;;;;;7587067;23;19993;-71
2023/11/23 20:45:16;;;;;;;7.43;4.25;;;8.30;59.30;;;;;;7537570;23;20005;-72
2023/11/23 20:48:18;;;;;;;17.70;6.13;;;8.30;59.40;;;;;;7562279;23;20014;-71
2023/11/23 20:51:19;;;;;;;17.02;5.68;;;8.20;59.50;;;;;;7588652;23;19997;-71
2023/11/23 20:54:20;;;;;;;12.70;5.97;;;8.20;59.60;;;;;;7562829;23;20041;-71
2023/11/23 20:57:21;;;;;;;11.75;5.22;;;8.20;59.70;;;;;;7587522;23;20014;-71
2023/11/23 21:00:24;;;;;;;10.82;5.80;;;8.10;59.80;;;;;;7585881;23;20106;-71
2023/11/23 21:03:28;;;;;;;12.02;5.63;;;8.10;59.80;;;;;;7587102;23;20005;-71
2023/11/23 21:06:30;;;;;;;13.80;6.90;;;8.10;59.80;;;;;;7562315;23;20088;-71
2023/11/23 21:09:31;;;;;;;13.55;5.20;;;8.10;60.00;;;;;;7587697;23;20336;-71
2023/11/23 21:12:32;;;;;;;12.75;4.95;;;8.10;60.00;;;;;;7563103;23;20772;-71
2023/11/23 21:15:33;;;;;;;14.82;5.53;;;8.10;60.00;;;;;;7563773;23;20078;-70
2023/11/23 21:18:33;;;;;;;11.63;5.38;;;8.10;60.20;;;;;;7588649;23;20081;-71
2023/11/23 21:21:34;;;;;;;14.20;6.47;;;8.10;60.30;;;;;;7589285;23;20430;-71
2023/11/23 21:24:37;;;;;;;17.42;6.60;;;8.00;60.30;;;;;;7562874;23;20006;-70
2023/11/23 21:27:38;;;;;;;10.40;5.55;;;8.00;60.30;;;;;;7587499;23;20025;-71
2023/11/23 21:30:39;;;;;;;14.75;6.38;;;8.00;60.30;;;;;;7587106;23;20013;-71
2023/11/23 21:33:40;;;;;;;10.63;5.43;;;8.00;60.30;;;;;;7560196;23;20014;-72
2023/11/23 21:36:42;;;;;;;7.55;4.82;;;8.00;60.30;;;;;;7586928;23;20006;-73
2023/11/23 21:39:43;;;;;;;11.65;5.22;;;8.10;60.40;;;;;;7589035;23;20005;-72
2023/11/23 21:42:44;;;;;;;14.85;4.70;;;8.10;60.40;;;;;;7562089;23;20080;-73
2023/11/23 21:45:46;;;;;;;10.85;5.53;;;8.10;60.30;;;;;;7588919;23;20088;-73
2023/11/23 21:48:47;;;;;;;8.40;5.82;;;8.10;60.20;;;;;;7587912;23;19998;-73
2023/11/23 21:51:48;;;;;;;9.27;4.80;;;8.10;60.20;;;;;;7586756;23;20017;-71
2023/11/23 21:54:50;;;;;;;11.85;6.82;;;8.10;60.20;;;;;;7589222;23;20025;-72
2023/11/23 21:57:51;;;;;;;9.75;5.03;;;8.10;60.20;;;;;;7588830;23;20002;-73
2023/11/23 22:00:52;;;;;;;10.77;5.03;;;8.20;60.30;;;;;;7587181;23;20060;-72
2023/11/23 22:03:52;;;;;;;14.18;6.57;;;8.10;60.20;;;;;;7586660;23;20506;-70
2023/11/23 22:06:53;;;;;;;11.25;5.97;;;8.10;60.20;;;;;;7587673;23;20680;-70
2023/11/23 22:09:54;;;;;;;11.98;5.72;;;8.10;60.30;;;;;;7589943;23;20002;-69
2023/11/23 22:12:55;;;;;;;10.30;5.53;;;8.10;60.40;;;;;;7587456;23;20033;-69
2023/11/23 22:15:56;;;;;;;9.95;5.50;;;8.10;60.40;;;;;;7588364;23;20022;-69
2023/11/23 22:18:57;;;;;;;8.50;4.22;;;8.00;60.50;;;;;;7586987;23;19994;-67
2023/11/23 22:21:58;;;;;;;15.32;5.88;;;8.00;60.50;;;;;;7586396;23;20029;-70
2023/11/23 22:24:59;;;;;;;9.48;4.55;;;8.00;60.50;;;;;;7562930;23;20082;-69
2023/11/23 22:34:28;;;;;;;14.82;4.95;;;8.00;60.60;;;;;;7569616;23;20034;-69
2023/11/23 22:37:30;;;;;;;12.68;5.13;;;8.10;60.60;;;;;;7564654;23;20010;-69
2023/11/23 22:40:31;;;;;;;9.68;5.40;;;8.20;60.70;;;;;;7564344;23;20025;-68
2023/11/23 22:43:32;;;;;;;10.85;5.53;;;8.20;60.50;;;;;;7591197;23;20037;-68
2023/11/23 22:46:33;;;;;;;11.95;5.10;;;8.20;60.40;;;;;;7591722;23;20010;-68
2023/11/23 22:49:34;;;;;;;12.23;4.40;;;8.20;60.50;;;;;;7565441;23;20032;-69
2023/11/23 22:52:35;;;;;;;9.05;4.93;;;8.20;60.50;;;;;;7561730;23;20033;-68
2023/11/23 22:55:36;;;;;;;13.80;5.60;;;8.30;60.50;;;;;;7586926;23;20006;-68
2023/11/23 22:58:37;;;;;;;15.23;5.57;;;8.30;60.40;;;;;;7565213;23;20036;-67
2023/11/23 23:01:38;;;;;;;9.63;5.05;;;8.30;60.40;;;;;;7591367;23;19998;-68
2023/11/23 23:04:39;;;;;;;12.40;5.80;;;8.30;60.30;;;;;;7589532;23;20006;-69
2023/11/23 23:07:41;;;;;;;9.38;4.72;;;8.40;60.30;;;;;;7562144;23;20086;-69
2023/11/23 23:10:43;;;;;;;11.38;6.05;;;8.40;60.30;;;;;;7589500;23;20088;-67
2023/11/23 23:13:43;;;;;;;20.00;6.78;;;8.50;60.30;;;;;;7564377;23;20014;-67
2023/11/23 23:16:44;;;;;;;13.57;5.97;;;8.50;60.30;;;;;;7590328;23;20028;-67
2023/11/23 23:19:45;;;;;;;9.68;5.80;;;8.50;60.40;;;;;;7591361;23;20026;-69
2023/11/23 23:22:46;;;;;;;12.15;5.88;;;8.50;60.40;;;;;;7591580;23;20435;-68
2023/11/23 23:25:48;;;;;;;11.25;6.25;;;8.50;60.40;;;;;;7590913;23;20010;-67
2023/11/23 23:28:49;;;;;;;11.23;5.90;;;8.50;60.40;;;;;;7590818;23;20088;-67
2023/11/23 23:31:51;;;;;;;19.30;6.18;;;8.40;60.40;;;;;;7590622;23;20009;-67
2023/11/23 23:34:52;;;;;;;15.15;6.30;;;8.30;60.70;;;;;;7588339;23;20050;-70
2023/11/23 23:37:52;;;;;;;11.80;7.07;;;8.20;60.90;;;;;;7590482;23;20430;-68
2023/11/23 23:40:53;;;;;;;13.88;5.65;;;8.10;61.00;;;;;;7564222;23;20029;-68
2023/11/23 23:43:54;;;;;;;9.45;6.38;;;8.20;61.10;;;;;;7590743;23;20386;-67
2023/11/23 23:46:55;;;;;;;14.95;7.20;;;8.10;61.20;;;;;;7565842;23;20020;-68
2023/11/23 23:49:57;;;;;;;11.32;6.82;;;8.20;61.30;;;;;;7592635;23;20397;-69
2023/11/23 23:52:57;;;;;;;12.77;6.00;;;8.30;61.20;;;;;;7592713;23;20009;-67
2023/11/23 23:55:58;;;;;;;13.23;6.57;;;8.30;61.20;;;;;;7564133;23;20009;-67
2023/11/23 23:58:59;;;;;;;12.35;6.15;;;8.30;61.20;;;;;;7540383;23;20522;-68
